Station: Douglas River

  Atmospheric Gas Attenuation - ITU Rec 676-11   --------------- db/100km ---------------
Date Time Temp RH % AH g/m3 Dew Point Wind Direction Speed kph Gust kph Barometer mB Rainfall Since 9am 24GHz 47GHz 76GHz 122GHz 134GHz 241GHz
07 08:10 15.1 97 12.51 14.6 0 0 1014.5 0 27.9 32.2 55.8 147.0 151.3 523.3
07 08:00 14.5 96 11.94 13.9 2 9 1014.1 0 26.7 31.4 53.6 141.3 144.0 497.9
07 07:50 13.7 96 11.37 13.1 0 0 1014.2 0 25.5 30.7 51.6 136.0 137.1 473.9
07 07:40 13.2 95 10.91 12.4 0 0 1014 0 24.6 30.0 49.9 131.4 131.3 453.5
07 07:30 12.8 95 10.64 12 0 0 1013.6 0 24.0 29.7 48.9 128.8 128.1 442.1
07 07:20 12.8 94 10.53 11.9 0 0 1013.8 0 23.8 29.5 48.5 127.6 126.5 436.6
07 07:10 12.5 94 10.34 11.6 0 0 1013.6 0 23.4 29.2 47.8 125.8 124.3 428.7
07 07:00 12.7 95 10.58 11.9 0 0 1013.2 0 23.9 29.6 48.7 128.3 127.3 439.5
07 06:50 13.4 96 11.16 12.8 0 0 1013.2 0 25.1 30.4 50.8 133.9 134.5 464.7
07 06:40 13.4 96 11.16 12.8 0 0 1013 0 25.1 30.4 50.8 133.9 134.5 464.6
07 06:30 13.5 96 11.23 12.9 6 9 1012.9 0 25.3 30.4 51.1 134.5 135.3 467.5
07 06:20 12.8 95 10.64 12 6 7 1012.7 0 24.0 29.6 48.9 128.7 128.0 441.8
07 06:10 12.3 92 9.99 11 9 9 1012.4 0 22.7 28.7 46.4 122.0 119.5 412.0
07 06:00 12.9 93 10.48 11.8 2 6 1012.1 0 23.7 29.3 48.1 126.6 125.5 433.0
07 05:50 12.9 93 10.48 11.8 0 0 1012 0 23.7 29.3 48.1 126.6 125.4 432.9
07 05:40 13.2 92 10.56 11.9 0 4 1012 0 23.8 29.3 48.3 127.1 126.1 435.2
07 05:30 13.6 94 11.06 12.7 6 7 1011.8 0 24.9 30.1 50.2 132.2 132.6 457.9
07 05:20 14 95 11.46 13.2 4 6 1011.9 0 25.7 30.6 51.7 136.2 137.7 475.7
07 05:10 13.8 94 11.2 12.9 6 7 1011.7 0 25.2 30.2 50.7 133.5 134.2 463.7
07 04:50 13.2 93 10.68 12.1 0 0 1011.6 0 24.1 29.5 48.8 128.4 127.8 441.1
07 04:40 13.3 94 10.86 12.4 0 0 1011.5 0 24.5 29.8 49.5 130.3 130.2 449.5
07 04:30 13.6 95 11.18 12.8 0 0 1011.3 0 25.1 30.3 50.7 133.5 134.2 463.8
07 04:20 12.7 90 10.02 11.1 0 0 1011.2 0 22.7 28.5 46.2 121.5 119.2 411.0
07 04:10 13.4 91 10.58 12 0 0 1011.1 0 23.9 29.3 48.2 126.9 126.0 434.8
07 04:00 13.8 86 10.25 11.5 4 6 1010.9 0 23.1 28.6 46.5 122.4 120.6 416.3
07 03:50 16 92 12.53 14.7 6 7 1011 0 27.9 31.8 55.0 145.1 149.4 516.9
07 03:40 16.8 94 13.44 15.8 7 9 1010.9 0 29.8 33.1 58.5 154.5 161.1 558.0
07 03:30 16.5 96 13.48 15.9 6 11 1010.8 0 29.9 33.3 58.9 155.5 162.4 562.3
07 03:20 15 93 11.93 13.9 4 6 1011 0 26.7 31.1 53.1 139.9 142.5 492.9
07 03:10 14.5 90 11.19 12.9 6 7 1011 0 25.1 29.9 50.1 132.1 132.8 458.8
07 03:00 15.4 91 11.96 13.9 6 7 1010.7 0 26.7 31.0 52.9 139.4 142.2 491.8
07 02:50 15.7 91 12.18 14.2 0 0 1010.9 0 27.2 31.3 53.7 141.5 144.8 501.0
07 02:40 15.9 89 12.05 14.1 4 6 1011 0 26.9 31.0 53.0 139.6 142.6 493.2
07 02:30 16.6 90 12.71 15 6 7 1010.9 0 28.2 31.9 55.4 146.1 150.8 521.9
07 02:20 16.7 93 13.22 15.6 4 6 1011 0 29.3 32.8 57.6 152.0 158.1 547.4
07 02:10 16.2 92 12.69 14.9 7 7 1011 0 28.2 32.0 55.6 146.6 151.3 523.7
07 02:00 16.3 92 12.76 15 2 6 1011 0 28.4 32.1 55.8 147.3 152.1 526.6
07 01:50 16.2 91 12.55 14.7 0 0 1011.2 0 27.9 31.8 55.0 145.0 149.3 516.6
07 01:40 16.4 90 12.56 14.8 0 0 1011.3 0 27.9 31.7 54.9 144.8 149.0 515.8
07 01:30 16.6 91 12.85 15.1 0 0 1011.2 0 28.5 32.1 56.0 147.8 152.9 529.2
07 01:20 16.1 89 12.2 14.3 0 0 1011.4 0 27.2 31.2 53.5 141.1 144.4 499.6
07 01:10 16.5 88 12.36 14.5 0 0 1011.4 0 27.5 31.3 53.9 142.2 146.0 505.1
07 01:00 16.7 89 12.65 14.9 6 13 1011.2 0 28.1 31.8 55.1 145.2 149.8 518.3
07 00:50 16.8 86 12.29 14.4 7 9 1011.4 0 27.3 31.1 53.4 140.9 144.4 499.6
07 00:40 17 83 12.01 14.1 0 0 1011.4 0 26.7 30.5 52.1 137.2 140.0 484.4
07 00:30 17 79 11.43 13.3 0 4 1011.3 0 25.5 29.5 49.6 130.6 131.8 455.9
07 00:20 18.7 79 12.65 15 2 6 1011.5 0 28.0 31.0 53.7 141.6 145.9 505.1
07 00:10 19.5 80 13.43 16 7 9 1011.5 0 29.6 32.1 56.5 149.1 155.4 538.4
07 00:00 19.5 79 13.26 15.8 6 9 1011.5 0 29.2 31.8 55.8 147.1 153.0 529.9
06 23:50 20 78 13.48 16 6 6 1011.7 0 29.6 32.0 56.4 148.7 155.1 537.5
06 23:40 20.1 78 13.56 16.1 7 9 1011.8 0 29.8 32.1 56.6 149.5 156.1 540.8
06 23:30 20.5 77 13.7 16.3 7 9 1011.7 0 30.1 32.2 57.0 150.3 157.2 544.9
06 23:20 20.8 76 13.76 16.4 7 9 1011.8 0 30.2 32.2 57.0 150.4 157.5 545.8
06 23:10 20.9 72 13.11 15.7 4 6 1011.8 0 28.8 31.1 54.1 142.8 148.1 513.2
06 23:00 21.2 70 12.97 15.5 7 11 1011.6 0 28.5 30.7 53.3 140.7 145.6 504.4
06 22:50 21.9 70 13.51 16.2 7 9 1011.8 0 29.6 31.4 55.1 145.5 151.7 525.9
06 22:40 22.1 69 13.47 16.1 9 9 1011.7 0 29.5 31.2 54.8 144.6 150.8 522.6
06 22:30 22.5 68 13.58 16.3 9 11 1011.6 0 29.7 31.3 55.0 145.1 151.5 525.1
06 22:20 22.6 67 13.46 16.2 9 9 1011.7 0 29.4 31.0 54.4 143.6 149.6 518.7
06 22:10 22.9 66 13.49 16.2 9 11 1011.6 0 29.5 31.0 54.3 143.4 149.5 518.1
06 22:00 23.2 65 13.51 16.3 7 11 1011.5 0 29.5 30.9 54.2 143.0 149.1 517.0
06 21:50 23.3 65 13.59 16.4 9 9 1011.5 0 29.6 31.0 54.5 143.7 150.0 520.2
06 21:40 23.3 64 13.38 16.1 7 9 1011.5 0 29.2 30.6 53.6 141.4 147.2 510.2
06 21:30 23.7 63 13.47 16.2 7 9 1011.3 0 29.4 30.6 53.7 141.6 147.6 511.8
06 21:20 23.8 63 13.55 16.3 7 7 1011.4 0 29.5 30.8 54.0 142.4 148.5 514.9
06 21:10 24 61 13.27 16 7 9 1011.3 0 28.9 30.2 52.7 138.9 144.4 500.5
06 21:00 24.6 60 13.5 16.3 7 11 1011.1 0 29.4 30.4 53.2 140.3 146.3 507.2
06 20:50 24.9 58 13.28 16.1 9 11 1011.1 0 28.9 29.9 52.1 137.4 142.8 495.1
06 20:40 25.4 57 13.42 16.3 9 13 1011 0 29.1 30.0 52.3 138.0 143.7 498.4
06 20:30 25.6 56 13.33 16.2 9 17 1010.8 0 28.9 29.7 51.8 136.7 142.1 492.9
06 20:20 25.7 55 13.17 16 9 11 1010.7 0 28.6 29.5 51.1 134.8 139.9 485.0
06 20:10 26.1 54 13.22 16.1 11 15 1010.5 0 28.7 29.4 51.0 134.6 139.8 484.7
06 20:00 26.1 53 12.98 15.8 11 17 1010.3 0 28.2 29.0 50.1 132.1 136.7 473.8
06 19:50 26.7 52 13.16 16 15 19 1010.2 0 28.5 29.1 50.4 133.0 137.9 478.2
06 19:40 27 51 13.13 16 11 13 1010 0 28.4 28.9 50.1 132.1 137.0 475.0
06 19:30 27.2 50 13.01 15.9 9 13 1009.8 0 28.2 28.7 49.5 130.5 135.1 468.4
06 19:20 27.6 49 13.04 15.9 11 15 1009.8 0 28.2 28.6 49.4 130.2 134.8 467.4
06 19:10 27.9 48 12.98 15.9 9 11 1009.7 0 28.0 28.4 48.9 129.1 133.5 463.0
06 19:00 28.2 47 12.92 15.8 11 17 1009.5 0 27.9 28.2 48.5 128.0 132.2 458.5
06 18:50 28.7 45 12.72 15.9 13 20 1009.5 0 27.5 27.7 47.5 125.2 128.9 447.0
06 18:40 29.1 44 12.71 15.6 9 9 1009.4 0 27.4 27.6 47.2 124.4 128.1 444.3
06 18:30 29.5 41 12.1 14.9 11 20 1009.2 0 26.1 26.6 44.7 117.8 120.1 416.4
06 18:20 30.1 39 11.89 14.6 11 13 1009.2 0 25.6 26.1 43.6 114.9 116.7 404.6
06 18:10 30.8 36 11.4 14 11 13 1009.1 0 24.6 25.2 41.5 109.3 110.0 381.2
06 18:00 31.2 36 11.65 14.4 13 20 1008.9 0 25.1 25.4 42.2 111.1 112.3 389.3
06 17:50 31.5 36 11.84 14.6 13 17 1008.9 0 25.5 25.6 42.7 112.5 114.1 395.6
06 17:40 31.8 34 11.36 14 15 19 1008.8 0 24.4 24.8 40.9 107.6 108.2 374.9
06 17:30 32.4 33 11.38 14.1 11 17 1008.5 0 24.5 24.7 40.6 107.0 107.6 372.9
06 17:20 32.4 33 11.38 14.5 13 17 1008.6 0 24.5 24.7 40.6 107.0 107.6 372.9
06 17:10 31.6 33 10.91 13.4 11 15 1008.6 0 23.5 24.3 39.4 103.7 103.4 358.0
06 17:00 32.6 32 11.16 14.2 13 19 1008.4 0 24.0 24.3 39.8 104.7 104.8 363.3
06 16:50 32.5 31 10.75 13.2 13 15 1008.3 0 23.2 23.8 38.4 101.1 100.4 347.9
06 16:40 33.5 29 10.6 13.5 13 19 1008.2 0 22.8 23.3 37.5 98.6 97.6 337.9
06 16:30 32.8 29 10.22 12.9 13 20 1008.2 0 22.0 23.0 36.5 96.1 94.3 326.4
06 16:20 32.8 30 10.57 13.4 15 19 1008.3 0 22.8 23.5 37.7 99.2 98.1 339.7
06 16:10 33.3 31 11.22 13.9 17 20 1008.2 0 24.1 24.2 39.6 104.3 104.6 362.5
06 16:00 31.8 32 10.69 13.1 13 24 1008.1 0 23.1 23.9 38.5 101.4 100.6 348.4
06 15:50 31.9 31 10.41 12.7 20 24 1008.2 0 22.5 23.5 37.6 98.8 97.4 337.2
06 15:40 32.4 31 10.69 13.1 11 13 1008.5 0 23.0 23.7 38.3 100.7 99.9 346.0
06 15:30 33.1 31 11.1 13.7 13 22 1008.4 0 23.8 24.1 39.3 103.5 103.5 358.8

Last Refresh: 07-Aug-2020 08:20:19

Most of the information presented on this site is sourced from the Bureau of Meteorology.  Copyright in all material sourced from the Bureau of Meteorology resides with the Commonwealth of Australia.